LEJR

Jerez Airport

Jerez de la Forntera, Spain
METAR LEJR 221530Z 29006KT 240V340 9999 FEW025 17/M04 Q1007
Observed Flight Rules
Feb-22 @ 15:30 UTC (43 minutes ago) Visual Flight Rules
Wind Visibility Clouds
290° at 6 knots 10,000+ meters
  • Few at 2,500' AGL
Temperatures Readings
Current 17°C / 63°F
Dewpoint -4°C / 25°F
Humidity 24%
Altimeter 29.73" Hg
Pressure 1007 hPa
Elevation 30
METAR LEJR 221530Z 29006KT 240V340 9999 FEW025 17/M04 Q1007
Observed Flight Rules
Feb-22 @ 15:30 UTC
(43 minutes ago)
VFR
Wind Visibility
290° at 6 knots 10,000+ meters
Clouds
  • Few at 2,500' AGL
Temperature Dewpoint
17°C / 63°F -4°C / 25°F
Humidity Altimeter Pressure
24% 29.73" Hg 1007 hPa